Time;durP1;ratioP1;P1;durP2;ratioP2;P2;SDS_P1;SDS_P2;PMS_P1;PMS_P2;Temp;Humidity;BMP_temperature;BMP_pressure;BME280_temperature;BME280_humidity;BME280_pressure;Samples;Min_cycle;Max_cycle;Signal;HPM_P1;HPM_P2
2022/10/01 00:01:58;;;;;;;;;;;;;;;9.97;66.78;99242.09;6216755;23;628;-76
2022/10/01 00:04:25;;;;;;;;;;;;;;;9.95;66.65;99238.88;6188633;23;1001;-75
2022/10/01 00:06:52;;;;;;;;;;;;;;;9.96;66.90;99243.16;6215897;23;994;-75
2022/10/01 00:09:18;;;;;;;;;;;;;;;9.96;66.59;99243.97;6188894;23;1944;-75
2022/10/01 00:11:45;;;;;;;;;;;;;;;9.97;66.63;99239.41;6189588;23;1175;-75
2022/10/01 00:14:11;;;;;;;;;;;;;;;9.97;66.73;99234.03;6214050;23;954;-75
2022/10/01 00:16:38;;;;;;;;;;;;;;;9.97;66.63;99239.41;6213371;23;958;-76
2022/10/01 00:19:04;;;;;;;;;;;;;;;9.96;66.83;99227.84;6187954;23;990;-76
2022/10/01 00:21:31;;;;;;;;;;;;;;;9.96;66.61;99232.41;6216207;23;970;-76
2022/10/01 00:23:57;;;;;;;;;;;;;;;9.96;66.82;99229.72;6216534;23;780;-76
2022/10/01 00:26:26;;;;;;;;;;;;;;;9.94;66.82;99227.28;6187746;23;1009;-75
2022/10/01 00:28:52;;;;;;;;;;;;;;;9.96;66.54;99224.34;6216092;23;1203;-76
2022/10/01 00:31:19;;;;;;;;;;;;;;;9.96;66.54;99227.84;6204614;23;1943;-77
2022/10/01 00:33:45;;;;;;;;;;;;;;;9.95;66.69;99226.22;6186088;23;1125;-76
2022/10/01 00:36:12;;;;;;;;;;;;;;;9.94;66.79;99218.38;6184921;23;796;-75
2022/10/01 00:38:39;;;;;;;;;;;;;;;9.96;66.68;99225.16;6184482;23;1021;-76
2022/10/01 00:41:05;;;;;;;;;;;;;;;9.94;66.78;99224.59;6184699;23;1267;-75
2022/10/01 00:43:32;;;;;;;;;;;;;;;9.93;66.77;99219.47;6185930;23;847;-76
2022/10/01 00:45:58;;;;;;;;;;;;;;;9.95;66.71;99228.91;6183262;23;855;-78
2022/10/01 00:48:25;;;;;;;;;;;;;;;9.92;66.66;99224.03;6182694;23;1458;-75
2022/10/01 00:50:52;;;;;;;;;;;;;;;9.93;66.70;99219.47;6182796;23;1914;-76
2022/10/01 00:53:18;;;;;;;;;;;;;;;9.91;66.64;99211.66;6179811;23;1913;-75
2022/10/01 00:55:45;;;;;;;;;;;;;;;9.88;66.54;99212.16;6217149;23;415;-76
2022/10/01 00:58:12;;;;;;;;;;;;;;;9.88;66.93;99201.41;6217104;23;753;-76
2022/10/01 01:00:39;;;;;;;;;;;;;;;9.88;66.80;99203.25;6217093;23;819;-76
2022/10/01 01:03:05;;;;;;;;;;;;;;;9.87;66.70;99198.94;6191558;23;1034;-76
2022/10/01 01:05:32;;;;;;;;;;;;;;;9.86;66.89;99192.75;6191668;23;1277;-76
2022/10/01 01:08:01;;;;;;;;;;;;;;;9.86;66.85;99192.75;6217017;23;572;-76
2022/10/01 01:10:28;;;;;;;;;;;;;;;9.84;66.66;99181.41;6217045;23;1869;-76
2022/10/01 01:12:55;;;;;;;;;;;;;;;9.85;66.60;99180.34;6200647;23;1078;-76
2022/10/01 01:15:21;;;;;;;;;;;;;;;9.86;66.76;99183.88;6184372;23;959;-76
2022/10/01 01:17:48;;;;;;;;;;;;;;;9.84;66.91;99192.19;6185093;23;793;-76
2022/10/01 01:20:15;;;;;;;;;;;;;;;9.83;66.72;99182.50;6184233;23;940;-76
2022/10/01 01:22:41;;;;;;;;;;;;;;;9.83;66.94;99179.00;6184674;23;871;-76
2022/10/01 01:25:08;;;;;;;;;;;;;;;9.83;66.74;99174.44;6159255;23;1011;-76
2022/10/01 01:27:34;;;;;;;;;;;;;;;9.82;66.89;99167.41;6184886;23;844;-76
2022/10/01 01:30:03;;;;;;;;;;;;;;;9.82;66.85;99161.22;6184276;23;1889;-76
2022/10/01 01:32:30;;;;;;;;;;;;;;;9.82;66.87;99169.28;6184058;23;809;-76
2022/10/01 01:34:56;;;;;;;;;;;;;;;9.82;67.01;99164.72;6184856;23;871;-76
2022/10/01 01:37:23;;;;;;;;;;;;;;;9.83;66.74;99168.25;6184622;23;860;-76
2022/10/01 01:39:49;;;;;;;;;;;;;;;9.82;66.60;99155.84;6184362;23;860;-76
2022/10/01 01:42:16;;;;;;;;;;;;;;;9.83;66.89;99154.78;6174237;23;944;-76
2022/10/01 01:44:42;;;;;;;;;;;;;;;9.82;66.74;99151.25;6183811;23;978;-76
2022/10/01 01:47:09;;;;;;;;;;;;;;;9.82;66.72;99151.25;6184573;23;886;-76
2022/10/01 01:49:37;;;;;;;;;;;;;;;9.81;66.68;99146.97;6158210;23;1153;-76
2022/10/01 01:52:03;;;;;;;;;;;;;;;9.83;66.75;99146.72;6184531;23;1935;-75
2022/10/01 01:54:30;;;;;;;;;;;;;;;9.81;66.82;99149.66;6185315;23;819;-76
2022/10/01 01:56:57;;;;;;;;;;;;;;;9.82;66.93;99142.38;6187350;23;947;-75
2022/10/01 01:59:24;;;;;;;;;;;;;;;9.81;66.90;99138.09;6185665;23;896;-75
2022/10/01 02:01:50;;;;;;;;;;;;;;;9.82;66.94;99140.50;6153864;23;2048;-76
2022/10/01 02:04:17;;;;;;;;;;;;;;;9.81;66.68;99135.41;6156937;23;482;-76
2022/10/01 02:06:44;;;;;;;;;;;;;;;9.82;66.85;99126.25;6156762;23;799;-75
2022/10/01 02:09:11;;;;;;;;;;;;;;;9.79;66.79;99119.50;6156396;23;748;-76
2022/10/01 02:11:37;;;;;;;;;;;;;;;9.80;66.87;99121.16;6156874;23;1907;-76
2022/10/01 02:14:03;;;;;;;;;;;;;;;9.82;66.58;99127.06;6155320;23;894;-76
2022/10/01 02:16:30;;;;;;;;;;;;;;;9.80;66.58;99121.16;6157250;23;614;-76
2022/10/01 02:18:57;;;;;;;;;;;;;;;9.82;66.57;99115.50;6157099;23;500;-76
2022/10/01 02:21:23;;;;;;;;;;;;;;;9.81;66.73;99112.00;6157581;23;503;-76
2022/10/01 02:23:50;;;;;;;;;;;;;;;9.83;66.54;99120.66;6153851;23;1075;-76
2022/10/01 02:26:16;;;;;;;;;;;;;;;9.81;66.67;99106.63;6127149;23;936;-75
2022/10/01 02:28:43;;;;;;;;;;;;;;;9.80;66.58;99102.31;6127252;23;844;-75
2022/10/01 02:31:09;;;;;;;;;;;;;;;9.78;66.88;99113.31;6126357;23;1897;-74
2022/10/01 02:33:36;;;;;;;;;;;;;;;9.78;66.69;99116.00;6126602;23;980;-75
2022/10/01 02:36:02;;;;;;;;;;;;;;;9.80;66.56;99101.50;6126207;23;872;-75
2022/10/01 02:38:29;;;;;;;;;;;;;;;9.81;66.62;99101.25;6127518;23;864;-76
2022/10/01 02:40:55;;;;;;;;;;;;;;;9.86;66.30;99097.81;6126654;23;903;-75
2022/10/01 02:43:22;;;;;;;;;;;;;;;9.82;66.57;99108.25;6127109;23;806;-75
2022/10/01 02:45:48;;;;;;;;;;;;;;;9.78;66.48;99091.81;6099739;23;821;-76
2022/10/01 02:48:16;;;;;;;;;;;;;;;9.80;66.67;99096.94;6127694;23;848;-75
2022/10/01 02:50:43;;;;;;;;;;;;;;;9.79;66.47;99098.00;6125082;23;1941;-76
2022/10/01 02:53:09;;;;;;;;;;;;;;;9.81;66.41;99081.63;6099810;23;1337;-76
2022/10/01 02:55:36;;;;;;;;;;;;;;;9.86;66.36;99093.25;6127266;23;798;-76
2022/10/01 02:58:01;;;;;;;;;;;;;;;9.86;66.24;99081.69;6126277;23;848;-76
2022/10/01 03:00:28;;;;;;;;;;;;;;;9.84;66.49;99087.31;6123919;23;1309;-76
2022/10/01 03:02:54;;;;;;;;;;;;;;;9.82;66.44;99075.97;6126395;23;742;-75
2022/10/01 03:05:20;;;;;;;;;;;;;;;9.80;66.64;99083.50;6126250;23;992;-76
2022/10/01 03:07:47;;;;;;;;;;;;;;;9.78;66.52;99081.03;6126304;23;798;-75
2022/10/01 03:10:14;;;;;;;;;;;;;;;9.81;66.38;99087.00;6123728;23;1897;-76
2022/10/01 03:12:43;;;;;;;;;;;;;;;9.86;66.27;99077.13;6127389;23;920;-76
2022/10/01 03:15:10;;;;;;;;;;;;;;;9.80;66.31;99072.75;6124786;23;784;-76
2022/10/01 03:17:37;;;;;;;;;;;;;;;9.86;66.24;99079.00;6127530;23;817;-76
2022/10/01 03:20:03;;;;;;;;;;;;;;;9.85;66.29;99070.09;6127222;23;821;-76
2022/10/01 03:22:30;;;;;;;;;;;;;;;9.83;66.19;99066.06;6126167;23;825;-76
2022/10/01 03:24:56;;;;;;;;;;;;;;;9.79;66.48;99071.09;6126620;23;797;-76
2022/10/01 03:27:23;;;;;;;;;;;;;;;9.89;65.94;99065.06;6126374;23;845;-76
2022/10/01 03:29:49;;;;;;;;;;;;;;;9.82;66.62;99057.16;6127038;23;869;-75
2022/10/01 03:32:16;;;;;;;;;;;;;;;9.83;66.21;99066.06;6121660;23;1901;-75
2022/10/01 03:34:42;;;;;;;;;;;;;;;9.78;66.51;99059.53;6125813;23;799;-75
2022/10/01 03:37:09;;;;;;;;;;;;;;;9.76;66.48;99060.84;6125578;23;988;-76
2022/10/01 03:39:35;;;;;;;;;;;;;;;9.77;66.49;99057.13;6125317;23;881;-74
2022/10/01 03:42:02;;;;;;;;;;;;;;;9.75;66.47;99045.78;6126177;23;1185;-75
2022/10/01 03:44:29;;;;;;;;;;;;;;;9.86;66.29;99044.03;6125057;23;778;-74
2022/10/01 03:46:55;;;;;;;;;;;;;;;9.81;66.36;99044.78;6125416;23;1168;-74
2022/10/01 03:49:22;;;;;;;;;;;;;;;9.79;66.45;99036.16;6124815;23;1264;-75
2022/10/01 03:51:48;;;;;;;;;;;;;;;9.77;66.62;99043.69;6123499;23;1937;-75
2022/10/01 03:54:15;;;;;;;;;;;;;;;9.77;66.56;99032.91;6125272;23;841;-75
2022/10/01 03:56:41;;;;;;;;;;;;;;;9.76;66.36;99045.56;6127240;23;1099;-75
2022/10/01 03:59:08;;;;;;;;;;;;;;;9.79;66.30;99036.16;6124585;23;813;-75
2022/10/01 04:01:34;;;;;;;;;;;;;;;9.77;66.34;99046.38;6125150;23;1321;-75
2022/10/01 04:04:01;;;;;;;;;;;;;;;9.79;66.51;99033.47;6125014;23;829;-75
2022/10/01 04:06:28;;;;;;;;;;;;;;;9.79;66.15;99033.47;6125869;23;848;-75
2022/10/01 04:08:54;;;;;;;;;;;;;;;9.77;66.41;99031.03;6121534;23;934;-74
2022/10/01 04:11:21;;;;;;;;;;;;;;;9.76;66.44;99028.59;6125667;23;1948;-74
2022/10/01 04:13:47;;;;;;;;;;;;;;;9.77;66.47;99022.16;6126017;23;1060;-75
2022/10/01 04:16:15;;;;;;;;;;;;;;;9.75;66.61;99022.41;6124541;23;1409;-75
2022/10/01 04:18:42;;;;;;;;;;;;;;;9.81;66.38;99025.97;6126346;23;789;-76
2022/10/01 04:21:08;;;;;;;;;;;;;;;9.78;66.31;99021.91;6126886;23;832;-75
2022/10/01 04:23:35;;;;;;;;;;;;;;;9.76;66.58;99026.72;6125496;23;837;-75
2022/10/01 04:26:01;;;;;;;;;;;;;;;9.75;66.55;99024.28;6126269;23;845;-75
2022/10/01 04:28:28;;;;;;;;;;;;;;;9.34;66.59;98959.28;6125957;23;986;-76
2022/10/01 04:31:23;;;;;;;;;;;;;;;9.75;66.35;99025.09;6124728;23;1919;-75
2022/10/01 04:33:42;;;;;;;;;;;;;;;9.74;66.49;99015.41;6124387;23;1143;-76
2022/10/01 04:36:08;;;;;;;;;;;;;;;9.78;66.55;99015.72;6126310;23;787;-75
2022/10/01 04:38:35;;;;;;;;;;;;;;;9.76;66.54;99018.66;6125547;23;722;-76
2022/10/01 04:41:02;;;;;;;;;;;;;;;9.78;66.37;99024.59;6124343;23;1298;-75
2022/10/01 04:43:28;;;;;;;;;;;;;;;9.75;66.59;99022.41;6126133;23;802;-75
2022/10/01 04:45:55;;;;;;;;;;;;;;;9.75;66.56;99021.59;6121735;23;848;-75
2022/10/01 04:48:21;;;;;;;;;;;;;;;9.75;66.39;99022.41;6126894;23;821;-75
2022/10/01 04:50:48;;;;;;;;;;;;;;;9.77;66.39;99016.78;6125086;23;1897;-75
2022/10/01 04:53:14;;;;;;;;;;;;;;;9.76;66.28;99015.97;6123566;23;1103;-76
2022/10/01 04:55:41;;;;;;;;;;;;;;;9.75;66.59;99011.66;6124520;23;841;-76
2022/10/01 04:58:07;;;;;;;;;;;;;;;9.75;66.47;99005.47;6127673;23;801;-75
2022/10/01 05:00:34;;;;;;;;;;;;;;;9.75;66.28;99005.47;6122754;23;1245;-76
2022/10/01 05:03:00;;;;;;;;;;;;;;;9.76;66.42;99002.53;6125376;23;909;-76
2022/10/01 05:05:28;;;;;;;;;;;;;;;9.77;66.32;98997.97;6126357;23;857;-76
2022/10/01 05:07:54;;;;;;;;;;;;;;;9.78;66.44;99000.38;6124412;23;842;-76
2022/10/01 05:10:21;;;;;;;;;;;;;;;9.77;66.32;99008.72;6125028;23;825;-75
2022/10/01 05:12:47;;;;;;;;;;;;;;;9.76;66.34;99007.06;6127055;23;1937;-76
2022/10/01 05:15:14;;;;;;;;;;;;;;;9.77;66.34;99006.03;6122697;23;744;-76
2022/10/01 05:17:40;;;;;;;;;;;;;;;9.78;66.40;98999.59;6124768;23;832;-76
2022/10/01 05:20:08;;;;;;;;;;;;;;;9.77;66.32;98993.41;6125025;23;774;-76
2022/10/01 05:22:34;;;;;;;;;;;;;;;9.76;66.40;98997.16;6123111;23;1992;-76
2022/10/01 05:25:01;;;;;;;;;;;;;;;9.76;66.59;98996.31;6160258;23;1555;-76
2022/10/01 05:27:28;;;;;;;;;;;;;;;9.76;66.53;98999.84;6162243;23;1363;-76
2022/10/01 05:29:55;;;;;;;;;;;;;;;9.76;66.53;98991.78;6186022;23;775;-76
2022/10/01 05:32:22;;;;;;;;;;;;;;;9.76;66.29;98997.16;6186053;23;1869;-76
2022/10/01 05:34:48;;;;;;;;;;;;;;;9.77;66.24;98998.78;6187753;23;608;-76
2022/10/01 05:37:14;;;;;;;;;;;;;;;9.76;66.48;98988.25;6187916;23;719;-76
2022/10/01 05:39:41;;;;;;;;;;;;;;;9.76;66.33;98990.94;6162530;23;569;-76
2022/10/01 05:42:07;;;;;;;;;;;;;;;9.76;66.27;98985.56;6186732;23;610;-76
2022/10/01 05:44:36;;;;;;;;;;;;;;;9.77;66.35;98992.59;6160980;23;675;-76
2022/10/01 05:47:03;;;;;;;;;;;;;;;9.76;66.42;98980.19;6186951;23;577;-76
2022/10/01 05:49:29;;;;;;;;;;;;;;;9.78;66.31;98972.69;6187216;23;814;-76
2022/10/01 05:51:56;;;;;;;;;;;;;;;9.78;66.29;98973.50;6186327;23;1870;-76
2022/10/01 05:54:23;;;;;;;;;;;;;;;9.76;66.38;98978.34;6159266;23;1149;-76
2022/10/01 05:56:50;;;;;;;;;;;;;;;9.77;66.57;98979.16;6184437;23;603;-76
2022/10/01 05:59:16;;;;;;;;;;;;;;;9.79;66.40;98982.38;6172712;23;1030;-76
2022/10/01 06:01:43;;;;;;;;;;;;;;;9.77;66.36;98984.53;6151370;23;832;-76
2022/10/01 06:04:09;;;;;;;;;;;;;;;9.77;66.49;98976.47;6153100;23;844;-76
2022/10/01 06:06:36;;;;;;;;;;;;;;;9.77;66.44;98977.25;6151945;23;801;-76
2022/10/01 06:09:02;;;;;;;;;;;;;;;9.77;66.37;98968.41;6125925;23;876;-76
2022/10/01 06:11:29;;;;;;;;;;;;;;;9.78;66.28;98964.63;6152715;23;1940;-75
2022/10/01 06:13:56;;;;;;;;;;;;;;;9.78;66.38;98978.06;6156326;23;718;-75
2022/10/01 06:16:22;;;;;;;;;;;;;;;9.77;66.28;98966.50;6131629;23;832;-75
2022/10/01 06:18:50;;;;;;;;;;;;;;;9.76;66.31;98951.44;6157727;23;828;-76
2022/10/01 06:21:17;;;;;;;;;;;;;;;9.78;66.34;98970.00;6158207;23;877;-76
2022/10/01 06:23:44;;;;;;;;;;;;;;;9.77;66.35;98957.63;6169131;23;1245;-75
2022/10/01 06:26:11;;;;;;;;;;;;;;;9.78;66.43;98964.63;6188278;23;870;-75
2022/10/01 06:28:37;;;;;;;;;;;;;;;9.78;66.53;98965.44;6160005;23;1330;-75
2022/10/01 06:31:04;;;;;;;;;;;;;;;9.80;66.29;98959.00;6183371;23;1944;-75
2022/10/01 06:33:30;;;;;;;;;;;;;;;9.78;66.33;98952.00;6184038;23;816;-76
2022/10/01 06:35:57;;;;;;;;;;;;;;;9.83;66.17;98959.31;6186598;23;825;-76
2022/10/01 06:38:24;;;;;;;;;;;;;;;9.81;66.41;98964.13;6185695;23;862;-75
2022/10/01 06:40:50;;;;;;;;;;;;;;;9.78;66.54;98952.00;6185152;23;808;-76
2022/10/01 06:43:17;;;;;;;;;;;;;;;9.78;66.49;98965.44;6183743;23;908;-76
2022/10/01 06:45:44;;;;;;;;;;;;;;;9.80;66.32;98964.38;6183876;23;963;-75
2022/10/01 06:48:13;;;;;;;;;;;;;;;9.79;66.27;98958.16;6181339;23;864;-75
2022/10/01 06:50:39;;;;;;;;;;;;;;;9.80;66.34;98970.56;6186885;23;862;-76
2022/10/01 06:53:06;;;;;;;;;;;;;;;9.82;66.49;98967.63;6156559;23;1933;-75
2022/10/01 06:55:32;;;;;;;;;;;;;;;9.81;66.34;98966.00;6182473;23;844;-76
2022/10/01 06:57:59;;;;;;;;;;;;;;;9.81;66.53;98966.81;6182130;23;833;-76
2022/10/01 07:00:25;;;;;;;;;;;;;;;9.82;66.27;98964.94;6157062;23;832;-76
2022/10/01 07:02:53;;;;;;;;;;;;;;;9.80;66.38;98973.25;6157786;23;1257;-76
2022/10/01 07:05:19;;;;;;;;;;;;;;;9.81;66.29;98969.50;6183752;23;809;-76
2022/10/01 07:07:47;;;;;;;;;;;;;;;9.81;66.48;98966.81;6184582;23;896;-75
2022/10/01 07:10:13;;;;;;;;;;;;;;;9.82;66.35;98964.94;6182632;23;788;-76
2022/10/01 07:12:40;;;;;;;;;;;;;;;9.81;66.40;98966.81;6183657;23;1897;-76
2022/10/01 07:15:06;;;;;;;;;;;;;;;9.81;66.57;98968.69;6182697;23;824;-76
2022/10/01 07:17:33;;;;;;;;;;;;;;;9.82;66.46;98964.94;6154900;23;1197;-76
2022/10/01 07:20:00;;;;;;;;;;;;;;;9.82;66.37;98970.31;6185304;23;785;-75
2022/10/01 07:22:26;;;;;;;;;;;;;;;9.82;66.33;98970.31;6185343;23;805;-75
2022/10/01 07:24:53;;;;;;;;;;;;;;;9.81;66.50;98968.69;6184701;23;1254;-75
2022/10/01 07:27:20;;;;;;;;;;;;;;;9.81;66.49;98971.38;6185433;23;816;-75
2022/10/01 07:29:46;;;;;;;;;;;;;;;9.82;66.44;98962.25;6184619;23;801;-75
2022/10/01 07:32:14;;;;;;;;;;;;;;;9.83;66.38;98977.31;6184923;23;1901;-76
2022/10/01 07:34:41;;;;;;;;;;;;;;;9.81;66.34;98969.50;6157875;23;1199;-76
2022/10/01 07:37:07;;;;;;;;;;;;;;;9.81;66.43;98972.19;6185634;23;863;-76
2022/10/01 07:39:34;;;;;;;;;;;;;;;9.81;66.43;98957.94;6183778;23;820;-75
2022/10/01 07:42:00;;;;;;;;;;;;;;;9.83;66.44;98971.94;6182941;23;868;-76
2022/10/01 07:44:28;;;;;;;;;;;;;;;9.85;66.38;98959.84;6182067;23;820;-76
2022/10/01 07:46:54;;;;;;;;;;;;;;;9.82;66.33;98965.72;6157126;23;1384;-75
2022/10/01 07:49:22;;;;;;;;;;;;;;;9.83;66.39;98967.38;6182505;23;836;-76
2022/10/01 07:51:49;;;;;;;;;;;;;;;9.83;66.39;98966.56;6183474;23;1946;-76
2022/10/01 07:54:15;;;;;;;;;;;;;;;9.82;66.57;98968.41;6181320;23;860;-75
2022/10/01 07:56:42;;;;;;;;;;;;;;;9.82;66.51;98973.00;6156833;23;1321;-76
2022/10/01 07:59:09;;;;;;;;;;;;;;;9.83;66.36;98964.69;6155496;23;1292;-76
2022/10/01 08:01:36;;;;;;;;;;;;;;;9.82;66.57;98957.66;6157280;23;789;-77
2022/10/01 08:05:16;;;;;;;;;;;;;;;9.82;66.37;98960.34;6181629;23;1089;-77
2022/10/01 08:06:49;;;;;;;;;;;;;;;9.82;66.59;98959.53;6157956;23;1399;-77
2022/10/01 08:09:15;;;;;;;;;;;;;;;9.83;66.48;98962.00;6183208;23;959;-77
2022/10/01 08:11:42;;;;;;;;;;;;;;;9.83;66.52;98961.19;6184354;23;1946;-77
2022/10/01 08:14:09;;;;;;;;;;;;;;;9.82;66.28;98968.41;6182374;23;889;-75
2022/10/01 08:16:38;;;;;;;;;;;;;;;9.84;66.30;98962.81;6159043;23;816;-77
2022/10/01 08:19:05;;;;;;;;;;;;;;;9.84;66.32;98960.91;6185188;23;1379;-77
2022/10/01 08:21:34;;;;;;;;;;;;;;;9.86;66.48;98966.06;6184875;23;1185;-77
2022/10/01 08:24:00;;;;;;;;;;;;;;;9.89;66.19;98965.56;6183311;23;1277;-77
2022/10/01 08:26:27;;;;;;;;;;;;;;;9.86;66.19;98966.06;6184471;23;964;-77
2022/10/01 08:28:53;;;;;;;;;;;;;;;9.87;66.41;98963.09;6181622;23;882;-77
2022/10/01 08:31:20;;;;;;;;;;;;;;;9.92;67.69;98967.72;6181524;23;1071;-77
2022/10/01 08:33:46;;;;;;;;;;;;;;;9.94;67.05;98969.09;6180132;23;1944;-77
2022/10/01 08:36:13;;;;;;;;;;;;;;;9.92;67.10;98970.44;6180369;23;824;-77
2022/10/01 08:38:40;;;;;;;;;;;;;;;9.93;67.28;98974.72;6180814;23;837;-77
2022/10/01 08:41:06;;;;;;;;;;;;;;;9.92;67.30;98982.00;6181063;23;832;-77
2022/10/01 08:43:33;;;;;;;;;;;;;;;9.93;67.24;98975.53;6179836;23;991;-77
2022/10/01 08:45:59;;;;;;;;;;;;;;;9.91;67.11;98975.00;6177845;23;967;-77
2022/10/01 08:48:26;;;;;;;;;;;;;;;9.89;67.14;98979.00;6150474;23;1560;-77
2022/10/01 08:50:56;;;;;;;;;;;;;;;9.93;67.33;98980.09;6181738;23;726;-77
2022/10/01 08:53:22;;;;;;;;;;;;;;;9.90;67.45;98977.94;6179268;23;1948;-77
2022/10/01 08:55:49;;;;;;;;;;;;;;;9.90;67.23;98976.03;6153975;23;2282;-77
2022/10/01 08:58:15;;;;;;;;;;;;;;;9.93;67.27;98972.03;6157218;23;1037;-77
2022/10/01 09:00:42;;;;;;;;;;;;;;;9.93;67.30;98975.53;6184131;23;793;-77
2022/10/01 09:03:09;;;;;;;;;;;;;;;9.92;67.15;98976.59;6186204;23;979;-77
2022/10/01 09:05:35;;;;;;;;;;;;;;;9.93;67.25;98982.78;6186049;23;1154;-77
2022/10/01 09:08:02;;;;;;;;;;;;;;;9.94;67.15;98976.34;6187048;23;883;-77
2022/10/01 09:10:28;;;;;;;;;;;;;;;9.93;67.07;98978.22;6185932;23;999;-77
2022/10/01 09:12:55;;;;;;;;;;;;;;;9.91;67.04;98983.06;6159733;23;1941;-77
2022/10/01 09:15:21;;;;;;;;;;;;;;;9.92;67.25;98979.31;6186360;23;821;-77
2022/10/01 09:17:48;;;;;;;;;;;;;;;9.92;67.03;98982.00;6159051;23;1361;-77
2022/10/01 09:20:14;;;;;;;;;;;;;;;9.93;67.10;98982.78;6160313;23;1251;-76
2022/10/01 09:22:41;;;;;;;;;;;;;;;9.94;66.88;98973.66;6187229;23;951;-77
2022/10/01 09:25:10;;;;;;;;;;;;;;;9.94;66.88;98968.28;6185995;23;1303;-77
2022/10/01 09:27:36;;;;;;;;;;;;;;;9.95;67.03;98968.03;6186789;23;820;-77
2022/10/01 09:30:03;;;;;;;;;;;;;;;9.94;66.78;98969.09;6186198;23;943;-77
2022/10/01 09:32:29;;;;;;;;;;;;;;;9.95;66.77;98959.16;6186553;23;1900;-76
2022/10/01 09:34:59;;;;;;;;;;;;;;;9.95;66.72;98959.97;6185553;23;1046;-77
2022/10/01 09:37:26;;;;;;;;;;;;;;;9.93;66.73;98970.16;6187557;23;830;-77
2022/10/01 09:39:52;;;;;;;;;;;;;;;9.93;67.00;98962.09;6187284;23;840;-77
2022/10/01 09:42:19;;;;;;;;;;;;;;;9.96;66.73;98963.47;6187000;23;1002;-77
2022/10/01 09:44:46;;;;;;;;;;;;;;;9.96;66.77;98961.56;6185899;23;983;-77
2022/10/01 09:47:12;;;;;;;;;;;;;;;9.95;66.61;98961.84;6186028;23;785;-77
2022/10/01 09:49:41;;;;;;;;;;;;;;;9.95;66.85;98964.53;6187091;23;808;-77
2022/10/01 09:52:07;;;;;;;;;;;;;;;9.94;66.71;98966.41;6186430;23;1906;-77
2022/10/01 09:54:34;;;;;;;;;;;;;;;9.94;66.80;98969.09;6160299;23;983;-77
2022/10/01 09:57:00;;;;;;;;;;;;;;;10.01;67.53;98976.97;6187613;23;891;-76
2022/10/01 09:59:27;;;;;;;;;;;;;;;9.94;67.32;98969.09;6186266;23;848;-77
2022/10/01 10:01:53;;;;;;;;;;;;;;;9.93;67.21;98972.84;6183300;23;964;-76
2022/10/01 10:04:22;;;;;;;;;;;;;;;9.98;67.07;98982.84;6184532;23;971;-76
2022/10/01 10:06:48;;;;;;;;;;;;;;;9.96;67.28;98983.09;6186751;23;798;-76
2022/10/01 10:09:15;;;;;;;;;;;;;;;9.94;67.23;98977.19;6158346;23;1034;-76
2022/10/01 10:11:42;;;;;;;;;;;;;;;9.95;67.46;98983.38;6186353;23;1034;-76
2022/10/01 10:14:09;;;;;;;;;;;;;;;9.96;67.40;98982.28;6157986;23;1966;-76
2022/10/01 10:16:35;;;;;;;;;;;;;;;9.96;67.29;98984.97;6185165;23;962;-75
2022/10/01 10:19:02;;;;;;;;;;;;;;;9.96;67.50;98985.78;6159647;23;1246;-76
2022/10/01 10:21:28;;;;;;;;;;;;;;;9.96;67.30;98985.78;6186647;23;1012;-75
2022/10/01 10:23:55;;;;;;;;;;;;;;;9.98;67.27;98988.22;6184160;23;1230;-75
2022/10/01 10:26:21;;;;;;;;;;;;;;;9.96;67.17;98980.41;6186562;23;1019;-75
2022/10/01 10:28:48;;;;;;;;;;;;;;;9.96;67.34;98984.97;6186149;23;983;-75
2022/10/01 10:31:14;;;;;;;;;;;;;;;9.96;67.47;98979.59;6157208;23;1139;-76
2022/10/01 10:33:41;;;;;;;;;;;;;;;9.95;67.31;98980.66;6186394;23;1893;-76
2022/10/01 10:36:08;;;;;;;;;;;;;;;9.97;67.12;98978.53;6187027;23;848;-76
2022/10/01 10:38:34;;;;;;;;;;;;;;;9.96;67.28;98975.03;6186138;23;947;-76
2022/10/01 10:41:02;;;;;;;;;;;;;;;9.97;67.25;98973.16;6185979;23;1026;-76
2022/10/01 10:43:29;;;;;;;;;;;;;;;9.96;67.31;98982.28;6156886;23;948;-76
2022/10/01 10:45:55;;;;;;;;;;;;;;;9.97;67.31;98978.53;6183175;23;818;-76
2022/10/01 10:48:22;;;;;;;;;;;;;;;9.97;66.98;98979.34;6186202;23;1003;-77
2022/10/01 10:50:48;;;;;;;;;;;;;;;9.97;67.21;98981.22;6186902;23;979;-76
2022/10/01 10:53:16;;;;;;;;;;;;;;;9.97;67.07;98983.91;6185959;23;1897;-76
2022/10/01 10:55:42;;;;;;;;;;;;;;;9.97;67.24;98987.44;6186484;23;1137;-76
2022/10/01 10:58:09;;;;;;;;;;;;;;;9.96;67.18;98987.66;6183163;23;814;-75
2022/10/01 11:00:36;;;;;;;;;;;;;;;9.96;67.13;98988.47;6156716;23;943;-75
2022/10/01 11:03:02;;;;;;;;;;;;;;;9.97;67.17;98983.91;6184579;23;971;-76
2022/10/01 11:05:30;;;;;;;;;;;;;;;9.97;67.03;98990.13;6185715;23;979;-75
2022/10/01 11:07:57;;;;;;;;;;;;;;;9.97;67.04;98987.44;6183131;23;848;-77
2022/10/01 11:10:23;;;;;;;;;;;;;;;9.96;66.96;98993.84;6186405;23;987;-75
2022/10/01 11:12:55;;;;;;;;;;;;;;;9.98;67.00;98990.94;6158273;23;1945;-76
2022/10/01 11:15:21;;;;;;;;;;;;;;;9.98;66.94;98988.22;6184648;23;983;-76
2022/10/01 11:17:48;;;;;;;;;;;;;;;9.98;67.20;98986.34;6185783;23;826;-76
2022/10/01 11:20:14;;;;;;;;;;;;;;;9.99;67.10;98976.41;6158588;23;1427;-76
2022/10/01 11:22:41;;;;;;;;;;;;;;;9.98;67.04;98977.47;6156610;23;939;-76
2022/10/01 11:25:07;;;;;;;;;;;;;;;9.98;67.13;98980.16;6182811;23;1326;-75
2022/10/01 11:27:35;;;;;;;;;;;;;;;9.97;67.14;98982.03;6185925;23;1144;-76
2022/10/01 11:30:01;;;;;;;;;;;;;;;9.98;67.02;98977.47;6157589;23;955;-76
2022/10/01 11:32:28;;;;;;;;;;;;;;;9.98;67.07;98972.91;6177600;23;1901;-76
2022/10/01 11:34:54;;;;;;;;;;;;;;;9.99;66.88;98974.50;6183751;23;1003;-76
2022/10/01 11:37:22;;;;;;;;;;;;;;;9.98;66.96;98974.78;6156671;23;1002;-76
2022/10/01 11:39:48;;;;;;;;;;;;;;;9.98;67.10;98972.91;6185705;23;847;-77
2022/10/01 11:42:14;;;;;;;;;;;;;;;9.97;67.06;98973.97;6159459;23;837;-76
2022/10/01 11:44:41;;;;;;;;;;;;;;;9.97;66.98;98973.97;6183632;23;995;-77
2022/10/01 11:47:07;;;;;;;;;;;;;;;9.98;67.21;98972.91;6184703;23;1002;-77
2022/10/01 11:49:34;;;;;;;;;;;;;;;9.98;66.98;98980.16;6159260;23;1143;-76
2022/10/01 11:52:01;;;;;;;;;;;;;;;9.98;67.07;98975.59;6158884;23;1233;-76
2022/10/01 11:54:27;;;;;;;;;;;;;;;9.98;67.03;98972.91;6183144;23;1901;-76
2022/10/01 11:59:38;;;;;;;;;;;;;;;9.99;67.10;98973.72;6182911;23;991;-76
2022/10/01 12:02:05;;;;;;;;;;;;;;;9.96;66.98;98969.66;6181116;23;995;-75
2022/10/01 12:04:32;;;;;;;;;;;;;;;9.98;66.89;98978.28;6184042;23;947;-75
2022/10/01 12:06:58;;;;;;;;;;;;;;;9.97;67.12;98971.28;6183471;23;955;-76
2022/10/01 12:09:25;;;;;;;;;;;;;;;9.97;67.12;98971.28;6183249;23;796;-76
2022/10/01 12:11:52;;;;;;;;;;;;;;;9.96;67.17;98969.66;6183927;23;1007;-76
2022/10/01 12:14:18;;;;;;;;;;;;;;;9.97;67.11;98963.22;6184514;23;1970;-76
2022/10/01 12:16:45;;;;;;;;;;;;;;;9.96;67.08;98969.66;6159019;23;951;-76
2022/10/01 12:19:11;;;;;;;;;;;;;;;9.98;67.11;98978.28;6159745;23;1140;-77
2022/10/01 12:21:38;;;;;;;;;;;;;;;9.97;67.09;98984.75;6183343;23;994;-76
2022/10/01 12:24:04;;;;;;;;;;;;;;;9.98;67.12;98970.22;6158352;23;1262;-76
2022/10/01 12:26:33;;;;;;;;;;;;;;;9.99;66.91;98979.09;6183197;23;978;-76
2022/10/01 12:28:59;;;;;;;;;;;;;;;9.98;67.12;98978.28;6157452;23;1007;-76
2022/10/01 12:31:26;;;;;;;;;;;;;;;9.99;67.18;98979.09;6159434;23;1227;-77
2022/10/01 12:33:53;;;;;;;;;;;;;;;9.99;67.17;98969.13;6159138;23;1932;-76
2022/10/01 12:36:19;;;;;;;;;;;;;;;9.98;66.91;98970.22;6160330;23;960;-76
2022/10/01 12:38:46;;;;;;;;;;;;;;;10.01;67.05;98974.28;6185719;23;1026;-76
2022/10/01 12:41:12;;;;;;;;;;;;;;;10.00;67.12;98978.03;6184982;23;960;-76
2022/10/01 12:43:39;;;;;;;;;;;;;;;10.00;66.96;98972.66;6183498;23;955;-77
2022/10/01 12:46:05;;;;;;;;;;;;;;;9.99;67.15;98977.22;6184151;23;1061;-76
2022/10/01 12:48:32;;;;;;;;;;;;;;;9.98;67.11;98986.34;6182926;23;963;-76
2022/10/01 12:50:58;;;;;;;;;;;;;;;9.99;67.27;98985.28;6158559;23;971;-76
2022/10/01 12:53:25;;;;;;;;;;;;;;;10.00;66.93;98986.91;6156895;23;1909;-76
2022/10/01 12:55:54;;;;;;;;;;;;;;;10.00;66.99;98986.13;6155091;23;1227;-76
2022/10/01 12:58:20;;;;;;;;;;;;;;;9.99;67.00;98987.97;6185284;23;999;-76
2022/10/01 13:00:47;;;;;;;;;;;;;;;10.00;67.03;98986.91;6184954;23;951;-76
2022/10/01 13:03:13;;;;;;;;;;;;;;;10.00;66.98;98986.91;6184577;23;956;-76
2022/10/01 13:05:40;;;;;;;;;;;;;;;9.99;67.11;98981.78;6185552;23;947;-76
2022/10/01 13:08:07;;;;;;;;;;;;;;;9.99;67.16;98985.28;6183299;23;829;-76
2022/10/01 13:10:33;;;;;;;;;;;;;;;9.99;67.05;98982.59;6158401;23;1300;-76
2022/10/01 13:13:00;;;;;;;;;;;;;;;9.99;67.09;98979.91;6185333;23;1944;-76
2022/10/01 13:15:26;;;;;;;;;;;;;;;10.00;67.03;98991.50;6185585;23;843;-76